Saturday, December 16, 2017, 5:50 AM EST
Back to Local

KDYL, Doylestown Airport

Location: Doylestown, PA, United States Lat: 40.333
Local Time: 5:50 AM EST (10:50 GMT) Lon: -75.117
Time Zone: US/Eastern Elev: 393 ft

Show me the last for .
Show Decoded

2017-12-16 04:54 METAR KDYL 160954Z AUTO 23006KT 10SM CLR M07/M09 A2998 RMK AO2 SLP165 T10671094
                 =
2017-12-16 03:54 METAR KDYL 160854Z AUTO 24005KT 10SM CLR M06/M09 A2998 RMK AO2 SLP162 T10611094
                 51016 =
2017-12-16 02:54 METAR KDYL 160754Z AUTO 23006KT 10SM CLR M07/M09 A2997 RMK AO2 SLP161 T10721089
                 =
2017-12-16 01:54 METAR KDYL 160654Z AUTO 25005KT 10SM CLR M06/M08 A2995 RMK AO2 SLP153 T10611083
                 =
2017-12-16 00:54 METAR KDYL 160554Z AUTO 24006KT 9SM CLR M07/M09 A2993 RMK AO2 SLP146 I1000 I6000
                 T10721089 11056 21083 53003 =
2017-12-15 23:54 METAR KDYL 160454Z AUTO 21004KT 8SM CLR M08/M09 A2992 RMK AO2 SLP145 I1000
                 T10781089 410391106 =
2017-12-15 22:54 METAR KDYL 160354Z AUTO 22004KT 9SM CLR M07/M08 A2992 RMK AO2 SLP144 T10721083 =
2017-12-15 21:54 METAR KDYL 160254Z AUTO 22004KT 10SM OVC075 M07/M08 A2992 RMK AO2 SLP144
                 T10671078 51007 =
2017-12-15 21:25 METAR KDYL 160225Z AUTO 23005KT 10SM SCT016 OVC080 M07/M08 A2993 RMK AO2
                 T10671078 =
2017-12-15 20:54 METAR KDYL 160154Z AUTO 23003KT 10SM OVC017 M07/M08 A2992 RMK AO2 SLP144
                 T10671078 =
2017-12-15 20:24 METAR KDYL 160124Z AUTO 26003KT 10SM BKN017 M07/M08 A2992 RMK AO2 T10671078 =
2017-12-15 19:54 METAR KDYL 160054Z AUTO 22003KT 10SM FEW070 M07/M08 A2991 RMK AO2 SLP140
                 T10671078 =
2017-12-15 18:54 METAR KDYL 152354Z AUTO 00000KT 10SM OVC055 M06/M07 A2990 RMK AO2 SNE03 SLP137
                 P0000 60000 T10561072 11050 21061 56006 =
2017-12-15 17:54 METAR KDYL 152254Z AUTO 00000KT 8SM -SN FEW038 OVC050 M06/M07 A2990 RMK AO2
                 SLP138 P0000 T10561072 =
2017-12-15 17:40 METAR KDYL 152240Z AUTO 00000KT 6SM -SN BR BKN031 OVC050 M06/M07 A2990 RMK AO2
                 P0000 T10561072 =
2017-12-15 17:07 METAR KDYL 152207Z AUTO 00000KT 3SM -SN BR OVC017 M06/M07 A2990 RMK AO2 P0000
                 T10611072 =
2017-12-15 16:54 METAR KDYL 152154Z AUTO 00000KT 2SM -SN BR OVC011 M06/M07 A2990 RMK AO2 SLP138
                 P0000 T10611072 =
2017-12-15 16:16 METAR KDYL 152116Z AUTO 00000KT 1 1/4SM -SN BR OVC014 M06/M07 A2991 RMK AO2
                 P0000 T10611072 =
2017-12-15 15:54 METAR KDYL 152054Z AUTO 30003KT 1 3/4SM -SN BR OVC020 M06/M07 A2992 RMK AO2
                 SLP144 P0000 60000 T10561072 55016 =
2017-12-15 15:39 METAR KDYL 152039Z AUTO 31003KT 1 3/4SM -SN BR FEW007 OVC020 M06/M08 A2992 RMK
                 AO2 P0000 T10561078 =
2017-12-15 15:17 METAR KDYL 152017Z AUTO 33004KT 2 1/2SM -SN BR FEW007 OVC019 M06/M08 A2991 RMK
                 AO2 P0000 T10561078 =
2017-12-15 14:54 METAR KDYL 151954Z AUTO 01003KT 2SM -SN BR OVC017 M05/M07 A2991 RMK AO2 SLP140
                 P0000 T10501072 =
2017-12-15 14:40 METAR KDYL 151940Z AUTO 00000KT 1 3/4SM -SN OVC019 M05/M08 A2991 RMK AO2 P0000
                 T10501078 =
2017-12-15 14:18 METAR KDYL 151918Z AUTO 00000KT 2 1/2SM -SN BKN023 OVC037 M06/M08 A2993 RMK AO2
                 P0000 T10561083 =
2017-12-15 13:54 METAR KDYL 151854Z AUTO 15003KT 9SM -SN SCT037 OVC046 M05/M10 A2993 RMK AO2
                 SNB30 SLP147 P0000 T10501100 =
2017-12-15 12:54 METAR KDYL 151754Z AUTO 00000KT 10SM OVC055 M04/M12 A2997 RMK AO2 SLP158
                 T10441117 11039 21089 58039 =
2017-12-15 11:54 METAR KDYL 151654Z AUTO 00000KT 10SM OVC060 M04/M12 A3001 RMK AO2 SLP172
                 T10441122 =
2017-12-15 10:54 METAR KDYL 151554Z AUTO 00000KT 10SM OVC046 M05/M12 A3005 RMK AO2 SLP189
                 T10501122 =
2017-12-15 09:54 METAR KDYL 151454Z AUTO 00000KT 10SM BKN046 BKN075 M05/M13 A3008 RMK AO2 SLP199
                 T10501128 55004 =
2017-12-15 08:54 METAR KDYL 151354Z AUTO 00000KT 10SM CLR M06/M12 A3008 RMK AO2 SLP198 T10611122
                 =
2017-12-15 07:54 METAR KDYL 151254Z AUTO 00000KT 10SM CLR M08/M12 A3009 RMK AO2 SLP202 T10781117
                 =
2017-12-15 06:54 METAR KDYL 151154Z AUTO 00000KT 10SM CLR M09/M12 A3010 RMK AO2 SLP203 T10941122
                 11072 21106 53004 =
2017-12-15 05:54 METAR KDYL 151054Z AUTO 00000KT 10SM CLR M11/M13 A3009 RMK AO2 SLP200 T11061133
                 =

Support USWX by starting your Amazon purchase here.